Time;durP1;ratioP1;P1;durP2;ratioP2;P2;SDS_P1;SDS_P2;PMS_P1;PMS_P2;Temp;Humidity;BMP_temperature;BMP_pressure;BME280_temperature;BME280_humidity;BME280_pressure;Samples;Min_cycle;Max_cycle;Signal;HPM_P1;HPM_P2
2022/01/05 00:02:01;;;;;;;7.40;2.43;;;5.00;99.90;;;;;;5071229;28;20252;-69
2022/01/05 00:04:28;;;;;;;8.50;3.17;;;5.00;99.90;;;;;;5071014;28;20614;-69
2022/01/05 00:06:55;;;;;;;5.60;2.97;;;5.00;99.90;;;;;;5089682;28;20274;-69
2022/01/05 00:09:22;;;;;;;8.27;3.00;;;4.90;99.90;;;;;;5091689;28;20677;-70
2022/01/05 00:11:49;;;;;;;10.50;3.50;;;4.90;99.90;;;;;;5092463;28;20203;-69
2022/01/05 00:14:16;;;;;;;7.60;3.67;;;4.90;99.90;;;;;;5073556;28;20601;-69
2022/01/05 00:16:45;;;;;;;9.00;3.63;;;4.90;99.90;;;;;;5072844;28;20198;-69
2022/01/05 00:19:12;;;;;;;11.10;3.40;;;4.90;99.90;;;;;;5092095;28;20201;-69
2022/01/05 00:21:40;;;;;;;9.13;3.10;;;4.90;99.90;;;;;;5091867;28;20717;-69
2022/01/05 00:24:08;;;;;;;9.07;3.60;;;4.90;99.90;;;;;;5080444;28;20205;-69
2022/01/05 00:26:35;;;;;;;6.77;3.00;;;4.90;99.90;;;;;;5092004;28;20588;-69
2022/01/05 00:29:02;;;;;;;8.53;2.80;;;5.00;99.90;;;;;;5088400;28;20259;-69
2022/01/05 00:31:29;;;;;;;9.30;3.27;;;4.90;99.90;;;;;;5077958;28;20256;-69
2022/01/05 00:33:58;;;;;;;5.57;3.07;;;4.90;99.90;;;;;;5070803;28;20856;-69
2022/01/05 00:36:25;;;;;;;9.10;2.70;;;5.00;99.90;;;;;;5071652;28;20260;-69
2022/01/05 00:38:52;;;;;;;6.57;2.70;;;5.00;99.90;;;;;;5083908;28;20198;-69
2022/01/05 00:41:19;;;;;;;11.00;2.90;;;5.00;99.90;;;;;;5085127;28;20202;-69
2022/01/05 00:43:46;;;;;;;7.57;2.53;;;4.90;99.90;;;;;;5091984;28;20267;-69
2022/01/05 00:46:13;;;;;;;9.13;2.40;;;4.90;99.90;;;;;;5083824;28;20194;-69
2022/01/05 00:48:40;;;;;;;6.20;2.50;;;5.00;99.90;;;;;;5087659;28;20689;-69
2022/01/05 00:51:09;;;;;;;6.90;2.50;;;4.90;99.90;;;;;;5091401;28;20537;-69
2022/01/05 00:53:37;;;;;;;9.47;2.63;;;4.90;99.90;;;;;;5087748;28;20706;-69
2022/01/05 00:56:05;;;;;;;9.83;2.57;;;4.90;99.90;;;;;;5069812;28;20710;-70
2022/01/05 00:58:32;;;;;;;9.43;3.23;;;4.90;99.90;;;;;;5072277;28;20256;-69
2022/01/05 01:00:59;;;;;;;7.23;2.50;;;4.90;99.90;;;;;;5088495;28;20209;-69
2022/01/05 01:03:28;;;;;;;6.03;3.10;;;4.90;99.90;;;;;;5090463;28;20213;-69
2022/01/05 01:05:55;;;;;;;10.20;2.50;;;4.90;99.90;;;;;;5089249;28;20232;-69
2022/01/05 01:08:23;;;;;;;6.27;2.97;;;4.90;99.90;;;;;;5090577;28;20269;-69
2022/01/05 01:10:50;;;;;;;4.57;2.13;;;4.80;99.90;;;;;;5090833;28;20618;-69
2022/01/05 01:13:18;;;;;;;4.67;2.50;;;4.80;99.90;;;;;;5071590;28;20434;-70
2022/01/05 01:15:45;;;;;;;9.13;2.50;;;4.80;99.90;;;;;;5070959;28;20564;-69
2022/01/05 01:18:12;;;;;;;5.13;2.23;;;4.80;99.90;;;;;;5070369;28;20194;-69
2022/01/05 01:20:39;;;;;;;7.17;2.50;;;4.80;99.90;;;;;;5072154;28;20206;-69
2022/01/05 01:23:06;;;;;;;8.60;2.63;;;4.80;99.90;;;;;;5070645;28;20568;-69
2022/01/05 01:25:34;;;;;;;6.77;2.33;;;4.80;99.90;;;;;;5090044;28;20205;-69
2022/01/05 01:28:03;;;;;;;10.83;2.83;;;4.80;99.90;;;;;;5091492;28;20222;-69
2022/01/05 01:30:31;;;;;;;10.13;2.47;;;4.70;99.90;;;;;;5069912;28;20190;-69
2022/01/05 01:32:59;;;;;;;8.33;2.63;;;4.70;99.90;;;;;;5082908;28;20726;-69
2022/01/05 01:35:26;;;;;;;8.03;2.50;;;4.70;99.90;;;;;;5091267;28;20718;-69
2022/01/05 01:37:54;;;;;;;8.10;2.60;;;4.70;99.90;;;;;;5080579;28;20210;-69
2022/01/05 01:40:21;;;;;;;7.80;2.77;;;4.70;99.90;;;;;;5070073;28;20613;-69
2022/01/05 01:42:50;;;;;;;9.53;2.40;;;4.60;99.90;;;;;;5079941;28;20206;-69
2022/01/05 01:45:17;;;;;;;8.80;2.43;;;4.70;99.90;;;;;;5090390;28;20197;-69
2022/01/05 01:47:45;;;;;;;6.17;2.50;;;4.70;99.90;;;;;;5090431;28;20278;-69
2022/01/05 01:50:13;;;;;;;11.60;2.40;;;4.60;99.90;;;;;;5083145;28;20202;-69
2022/01/05 01:52:40;;;;;;;6.63;2.00;;;4.60;99.90;;;;;;5077525;28;20294;-69
2022/01/05 01:55:09;;;;;;;10.00;2.03;;;4.60;99.90;;;;;;5090808;28;20262;-69
2022/01/05 01:57:39;;;;;;;9.47;2.07;;;4.60;99.90;;;;;;5090153;28;20251;-69
2022/01/05 02:00:09;;;;;;;10.03;2.10;;;4.60;99.90;;;;;;5079706;28;20202;-69
2022/01/05 02:02:37;;;;;;;5.80;2.27;;;4.60;99.90;;;;;;5072215;28;20237;-69
2022/01/05 02:05:05;;;;;;;12.70;2.57;;;4.60;99.90;;;;;;5069507;28;20198;-69
2022/01/05 02:07:32;;;;;;;8.70;2.33;;;4.60;99.90;;;;;;5090275;28;20596;-69
2022/01/05 02:09:59;;;;;;;6.53;1.83;;;4.60;99.90;;;;;;5090166;28;20242;-70
2022/01/05 02:12:27;;;;;;;6.13;2.20;;;4.60;99.90;;;;;;5090899;28;20255;-69
2022/01/05 02:14:55;;;;;;;13.10;2.30;;;4.60;99.90;;;;;;5072621;28;20453;-69
2022/01/05 02:17:30;;;;;;;9.07;2.73;;;4.60;99.90;;;;;;5070351;28;20202;-69
2022/01/05 02:19:58;;;;;;;6.57;2.53;;;4.60;99.90;;;;;;5071044;28;20640;-69
2022/01/05 02:22:26;;;;;;;8.80;2.17;;;4.60;99.90;;;;;;5076354;28;20243;-69
2022/01/05 02:24:53;;;;;;;7.87;2.73;;;4.60;99.90;;;;;;5070044;28;20566;-69
2022/01/05 02:27:20;;;;;;;6.50;2.33;;;4.60;99.90;;;;;;5078205;28;20282;-69
2022/01/05 02:29:47;;;;;;;9.03;2.23;;;4.60;99.90;;;;;;5090954;28;20717;-69
2022/01/05 02:32:14;;;;;;;11.57;2.30;;;4.60;99.90;;;;;;5089526;28;20201;-70
2022/01/05 02:34:41;;;;;;;6.70;2.53;;;4.50;99.90;;;;;;5090486;28;20603;-70
2022/01/05 02:37:08;;;;;;;9.80;2.67;;;4.50;99.90;;;;;;5089460;28;20205;-69
2022/01/05 02:39:36;;;;;;;11.57;2.43;;;4.50;99.90;;;;;;5079874;28;20206;-69
2022/01/05 02:42:04;;;;;;;7.80;2.80;;;4.50;99.90;;;;;;5073861;28;20214;-69
2022/01/05 02:44:31;;;;;;;10.13;2.70;;;4.50;99.90;;;;;;5084436;28;20259;-69
2022/01/05 02:46:58;;;;;;;9.30;2.70;;;4.50;99.90;;;;;;5080442;28;20225;-69
2022/01/05 02:49:25;;;;;;;8.13;3.00;;;4.50;99.90;;;;;;5090547;28;20251;-70
2022/01/05 02:51:52;;;;;;;9.40;2.90;;;4.40;99.90;;;;;;5083608;28;20238;-69
2022/01/05 02:54:19;;;;;;;8.00;2.97;;;4.40;99.90;;;;;;5068392;28;20242;-69
2022/01/05 02:56:47;;;;;;;10.80;3.50;;;4.30;99.90;;;;;;5089407;28;20262;-69
2022/01/05 02:59:14;;;;;;;10.93;2.97;;;4.30;99.90;;;;;;5069123;28;20248;-69
2022/01/05 03:01:41;;;;;;;11.73;3.80;;;4.30;99.90;;;;;;5069570;28;20721;-69
2022/01/05 03:04:08;;;;;;;10.80;2.77;;;4.30;99.90;;;;;;5069397;28;20225;-76
2022/01/05 03:06:35;;;;;;;8.57;2.77;;;4.30;99.90;;;;;;5085052;28;20569;-77
2022/01/05 03:09:02;;;;;;;6.67;2.77;;;4.30;99.90;;;;;;5089703;28;20303;-78
2022/01/05 03:11:29;;;;;;;10.87;3.30;;;4.30;99.90;;;;;;5074494;28;20652;-78
2022/01/05 03:13:58;;;;;;;9.37;2.50;;;4.20;99.90;;;;;;5085463;28;20593;-78
2022/01/05 03:16:25;;;;;;;8.80;2.60;;;4.20;99.90;;;;;;5072511;28;20224;-78
2022/01/05 03:18:52;;;;;;;7.20;3.00;;;4.20;99.90;;;;;;5086371;28;20206;-77
2022/01/05 03:21:19;;;;;;;8.90;2.80;;;4.20;99.90;;;;;;5077498;28;20259;-78
2022/01/05 03:23:47;;;;;;;5.77;2.67;;;4.30;99.90;;;;;;5076755;28;20198;-77
2022/01/05 03:26:14;;;;;;;7.97;2.77;;;4.30;99.90;;;;;;5075909;28;20206;-78
2022/01/05 03:28:41;;;;;;;10.93;3.37;;;4.20;99.90;;;;;;5085834;28;20562;-77
2022/01/05 03:31:09;;;;;;;9.27;2.40;;;4.30;99.90;;;;;;5091704;28;20251;-77
2022/01/05 03:33:36;;;;;;;7.40;3.43;;;4.30;99.90;;;;;;5080710;28;20198;-77
2022/01/05 03:36:04;;;;;;;8.20;2.43;;;4.30;99.90;;;;;;5073284;28;20198;-77
2022/01/05 03:38:31;;;;;;;7.70;2.10;;;4.30;99.90;;;;;;5077113;28;20680;-77
2022/01/05 03:40:59;;;;;;;5.03;2.50;;;4.30;99.90;;;;;;5088182;28;20251;-77
2022/01/05 03:43:26;;;;;;;7.87;2.70;;;4.30;99.90;;;;;;5084574;28;20194;-77
2022/01/05 03:45:53;;;;;;;8.97;2.60;;;4.30;99.90;;;;;;5082896;28;20655;-78
2022/01/05 03:48:22;;;;;;;9.50;3.03;;;4.30;99.90;;;;;;5091280;28;20609;-78
2022/01/05 03:50:49;;;;;;;9.93;2.73;;;4.30;99.90;;;;;;5091086;28;20720;-77
2022/01/05 03:53:17;;;;;;;8.80;2.80;;;4.30;99.90;;;;;;5091893;28;20205;-78
2022/01/05 03:55:45;;;;;;;9.40;2.70;;;4.40;99.90;;;;;;5072905;28;20201;-77
2022/01/05 03:58:12;;;;;;;9.17;2.43;;;4.40;99.90;;;;;;5088759;28;20259;-77
2022/01/05 04:00:42;;;;;;;8.67;2.90;;;4.30;99.90;;;;;;5083706;28;20195;-78
2022/01/05 04:03:09;;;;;;;9.97;2.70;;;4.30;99.90;;;;;;5091635;28;20201;-77
2022/01/05 04:05:37;;;;;;;9.77;2.37;;;4.30;99.90;;;;;;5088537;28;20251;-77
2022/01/05 04:08:05;;;;;;;11.33;2.60;;;4.40;99.90;;;;;;5093376;28;20218;-78
2022/01/05 04:10:32;;;;;;;11.40;2.30;;;4.40;99.90;;;;;;5091822;28;20608;-77
2022/01/05 04:12:59;;;;;;;6.77;2.30;;;4.40;99.90;;;;;;5092864;28;20197;-77
2022/01/05 04:15:28;;;;;;;10.17;2.50;;;4.30;99.90;;;;;;5090934;28;20248;-78
2022/01/05 04:17:55;;;;;;;6.23;2.17;;;4.30;99.90;;;;;;5092833;28;20274;-77
2022/01/05 04:20:22;;;;;;;7.43;2.40;;;4.40;99.90;;;;;;5091210;28;20201;-77
2022/01/05 04:22:51;;;;;;;7.33;2.30;;;4.30;99.90;;;;;;5076512;28;20206;-76
2022/01/05 04:25:18;;;;;;;9.33;2.87;;;4.30;99.90;;;;;;5092636;28;20189;-77
2022/01/05 04:27:45;;;;;;;11.07;3.37;;;4.30;99.90;;;;;;5076625;28;20260;-77
2022/01/05 04:30:13;;;;;;;6.20;2.23;;;4.30;99.90;;;;;;5073031;28;20726;-77
2022/01/05 04:32:40;;;;;;;9.47;2.40;;;4.30;99.90;;;;;;5098663;28;20217;-77
2022/01/05 04:35:11;;;;;;;8.80;2.53;;;4.20;99.90;;;;;;5091499;28;20244;-77
2022/01/05 04:37:38;;;;;;;6.80;2.20;;;4.20;99.90;;;;;;5092138;28;20678;-77
2022/01/05 04:40:08;;;;;;;9.60;2.17;;;4.20;99.90;;;;;;5093080;28;20197;-77
2022/01/05 04:42:35;;;;;;;8.37;2.83;;;4.10;99.90;;;;;;5091653;28;20632;-78
2022/01/05 04:45:02;;;;;;;10.97;2.70;;;4.10;99.90;;;;;;5091614;28;20198;-77
2022/01/05 04:47:29;;;;;;;6.27;2.00;;;4.10;99.90;;;;;;5090733;28;20205;-77
2022/01/05 04:49:56;;;;;;;8.57;2.00;;;4.00;99.90;;;;;;5091517;28;20250;-77
2022/01/05 04:52:23;;;;;;;9.00;2.00;;;4.00;99.90;;;;;;5091081;28;20664;-77
2022/01/05 04:54:50;;;;;;;7.67;2.07;;;3.90;99.90;;;;;;5091020;28;20201;-77
2022/01/05 04:57:19;;;;;;;6.70;2.20;;;3.80;99.90;;;;;;5092691;28;20624;-76
2022/01/05 04:59:46;;;;;;;9.23;1.87;;;3.80;99.90;;;;;;5090316;28;20194;-77
2022/01/05 05:02:13;;;;;;;8.73;2.03;;;3.80;99.90;;;;;;5091183;28;20222;-78
2022/01/05 05:04:41;;;;;;;8.17;2.17;;;3.80;99.90;;;;;;5089851;28;20660;-77
2022/01/05 05:07:08;;;;;;;7.73;2.10;;;3.80;99.90;;;;;;5090837;28;20564;-77
2022/01/05 05:09:35;;;;;;;8.27;2.00;;;3.70;99.90;;;;;;5091098;28;20282;-77
2022/01/05 05:12:02;;;;;;;8.93;2.20;;;3.70;99.90;;;;;;5091762;28;20198;-78
2022/01/05 05:14:30;;;;;;;6.63;2.67;;;3.70;99.90;;;;;;5091195;28;20532;-77
2022/01/05 05:16:57;;;;;;;6.37;1.90;;;3.60;99.90;;;;;;5090521;28;20708;-77
2022/01/05 05:19:24;;;;;;;11.97;2.50;;;3.50;99.90;;;;;;5092201;28;20611;-77
2022/01/05 05:21:51;;;;;;;7.43;1.90;;;3.50;99.90;;;;;;5091018;28;20205;-78
2022/01/05 05:24:18;;;;;;;10.20;2.97;;;3.50;99.90;;;;;;5092230;28;20251;-76
2022/01/05 05:26:45;;;;;;;8.07;2.53;;;3.50;99.90;;;;;;5090542;28;20201;-77
2022/01/05 05:29:12;;;;;;;13.83;3.03;;;3.50;99.90;;;;;;5090012;28;20607;-77
2022/01/05 05:31:42;;;;;;;7.87;1.90;;;3.50;99.90;;;;;;5090411;28;20250;-77
2022/01/05 05:34:09;;;;;;;5.40;1.80;;;3.50;99.90;;;;;;5089966;28;20442;-77
2022/01/05 05:36:36;;;;;;;8.13;1.90;;;3.40;99.90;;;;;;5090639;28;20239;-77
2022/01/05 05:39:03;;;;;;;13.67;3.20;;;3.30;99.90;;;;;;5091044;28;20201;-77
2022/01/05 05:41:30;;;;;;;12.67;2.50;;;3.30;99.90;;;;;;5091256;28;20233;-77
2022/01/05 05:43:57;;;;;;;11.27;2.07;;;3.30;99.90;;;;;;5090777;28;20271;-77
2022/01/05 05:46:24;;;;;;;6.87;1.53;;;3.30;99.90;;;;;;5090625;28;20197;-77
2022/01/05 05:48:52;;;;;;;8.33;2.27;;;3.30;99.90;;;;;;5090736;28;20245;-77
2022/01/05 05:51:19;;;;;;;6.17;2.17;;;3.40;99.90;;;;;;5090553;28;20247;-77
2022/01/05 05:53:46;;;;;;;6.30;1.83;;;3.30;99.90;;;;;;5090215;28;20239;-77
2022/01/05 05:56:13;;;;;;;9.23;2.07;;;3.30;99.90;;;;;;5091488;28;20610;-77
2022/01/05 05:58:40;;;;;;;6.03;1.70;;;3.20;99.90;;;;;;5091375;28;20290;-77
2022/01/05 06:01:07;;;;;;;8.27;2.00;;;3.20;99.90;;;;;;5091732;28;20243;-77
2022/01/05 06:03:34;;;;;;;5.87;1.60;;;3.20;99.90;;;;;;5089553;28;20604;-77
2022/01/05 06:06:03;;;;;;;4.87;1.70;;;3.10;99.90;;;;;;5089638;28;20205;-77
2022/01/05 06:08:30;;;;;;;9.30;1.93;;;3.10;99.90;;;;;;5091259;28;20309;-78
2022/01/05 06:10:57;;;;;;;10.67;2.43;;;3.10;99.90;;;;;;5090062;28;20247;-77
2022/01/05 06:13:24;;;;;;;10.77;2.00;;;3.00;99.90;;;;;;5091192;28;20201;-77
2022/01/05 06:15:51;;;;;;;9.47;2.17;;;3.00;99.90;;;;;;5088913;28;20205;-77
2022/01/05 06:18:18;;;;;;;7.10;1.90;;;3.10;99.90;;;;;;5091377;28;20243;-77
2022/01/05 06:20:45;;;;;;;9.57;1.77;;;3.10;99.90;;;;;;5090732;28;20239;-78
2022/01/05 06:23:13;;;;;;;6.13;1.93;;;3.10;99.90;;;;;;5088596;28;20683;-77
2022/01/05 06:25:40;;;;;;;9.93;2.03;;;3.10;99.90;;;;;;5090711;28;20644;-77
2022/01/05 06:28:11;;;;;;;8.17;2.27;;;3.00;99.90;;;;;;5091407;28;20294;-77
2022/01/05 06:30:38;;;;;;;9.37;3.03;;;3.10;99.90;;;;;;5091265;28;20209;-78
2022/01/05 06:33:05;;;;;;;10.53;1.77;;;3.10;99.90;;;;;;5089711;28;20205;-77
2022/01/05 06:35:32;;;;;;;8.07;1.93;;;3.10;99.90;;;;;;5089362;28;20577;-78
2022/01/05 06:38:01;;;;;;;13.27;2.47;;;3.10;99.90;;;;;;5090478;28;20210;-77
2022/01/05 06:40:30;;;;;;;7.47;2.90;;;3.10;99.90;;;;;;5090774;28;20209;-78
2022/01/05 06:42:58;;;;;;;9.20;2.20;;;3.10;99.90;;;;;;5091336;28;20209;-78
2022/01/05 06:45:25;;;;;;;9.40;2.20;;;3.10;99.90;;;;;;5091897;28;20213;-78
2022/01/05 06:47:52;;;;;;;7.43;2.10;;;3.10;99.90;;;;;;5095745;28;20209;-78
2022/01/05 06:50:18;;;;;;;4.40;2.63;;;3.10;99.90;;;;;;5095945;28;20213;-77
2022/01/05 06:52:45;;;;;;;11.43;2.87;;;3.20;99.90;;;;;;5095957;28;20205;-78
2022/01/05 06:55:12;;;;;;;14.87;3.17;;;3.10;99.90;;;;;;5095155;28;20198;-77
2022/01/05 06:57:40;;;;;;;7.27;2.80;;;3.20;99.90;;;;;;5095361;28;20202;-78
2022/01/05 07:00:09;;;;;;;11.07;3.43;;;3.10;99.90;;;;;;5095824;28;20697;-77
2022/01/05 07:02:36;;;;;;;11.90;3.23;;;3.00;99.90;;;;;;5095337;28;20205;-77
2022/01/05 07:05:03;;;;;;;8.70;3.10;;;3.10;99.90;;;;;;5095430;28;20232;-78
2022/01/05 07:07:30;;;;;;;10.93;3.10;;;3.00;99.90;;;;;;5095036;28;20285;-78
2022/01/05 07:09:57;;;;;;;13.97;2.97;;;3.10;99.90;;;;;;5094779;28;20225;-78
2022/01/05 07:12:24;;;;;;;9.10;3.20;;;3.00;99.90;;;;;;5095405;28;20231;-78
2022/01/05 07:14:52;;;;;;;12.00;3.43;;;3.10;99.90;;;;;;5094307;28;20215;-78
2022/01/05 07:17:19;;;;;;;11.17;3.30;;;3.20;99.90;;;;;;5094479;28;20204;-77
2022/01/05 07:19:46;;;;;;;8.07;2.83;;;3.20;99.90;;;;;;5094741;28;20655;-77
2022/01/05 07:22:13;;;;;;;12.60;4.10;;;3.10;99.90;;;;;;5094701;28;20213;-77
2022/01/05 07:24:39;;;;;;;12.20;3.00;;;3.10;99.90;;;;;;5095240;28;20234;-77
2022/01/05 07:27:07;;;;;;;11.17;3.47;;;3.10;99.90;;;;;;5094787;28;20204;-77
2022/01/05 07:29:34;;;;;;;11.70;3.50;;;3.10;99.90;;;;;;5094938;28;20217;-77
2022/01/05 07:32:02;;;;;;;9.37;2.80;;;3.20;99.90;;;;;;5094901;28;20206;-77
2022/01/05 07:34:29;;;;;;;14.50;4.40;;;3.10;99.90;;;;;;5095189;28;20205;-77
2022/01/05 07:36:56;;;;;;;11.40;3.00;;;3.10;99.90;;;;;;5095062;28;20202;-77
2022/01/05 07:39:23;;;;;;;9.03;2.97;;;3.10;99.90;;;;;;5094028;28;20202;-78
2022/01/05 07:41:50;;;;;;;11.53;4.50;;;3.10;99.90;;;;;;5094080;28;20296;-77
2022/01/05 07:44:17;;;;;;;12.50;3.33;;;3.10;99.90;;;;;;5093500;28;20208;-77
2022/01/05 07:46:44;;;;;;;13.23;3.50;;;3.10;99.90;;;;;;5093573;28;20206;-77
2022/01/05 07:49:12;;;;;;;8.60;3.03;;;3.20;99.90;;;;;;5094918;28;20217;-77
2022/01/05 07:51:39;;;;;;;15.47;3.73;;;3.30;99.90;;;;;;5094115;28;20202;-77
2022/01/05 07:54:06;;;;;;;10.77;3.60;;;3.30;99.90;;;;;;5094643;28;20198;-77
2022/01/05 07:56:33;;;;;;;16.33;4.20;;;3.30;99.90;;;;;;5094071;28;20291;-78
2022/01/05 07:59:00;;;;;;;14.20;3.50;;;3.40;99.90;;;;;;5094641;28;20209;-77
2022/01/05 08:01:27;;;;;;;13.60;4.20;;;3.40;99.90;;;;;;5094391;28;20558;-78
2022/01/05 08:03:54;;;;;;;14.30;4.17;;;3.40;99.90;;;;;;5093712;28;20604;-77
2022/01/05 08:06:22;;;;;;;9.67;4.30;;;3.40;99.90;;;;;;5094355;28;20644;-77
2022/01/05 08:08:49;;;;;;;13.27;4.20;;;3.40;99.90;;;;;;5093635;28;20224;-77
2022/01/05 08:11:17;;;;;;;13.47;4.40;;;3.40;99.90;;;;;;5093485;28;20205;-77
2022/01/05 08:13:43;;;;;;;12.67;4.87;;;3.50;99.90;;;;;;5093881;28;20291;-77
2022/01/05 08:16:11;;;;;;;15.63;4.73;;;3.50;99.90;;;;;;5093794;28;20648;-77
2022/01/05 08:18:38;;;;;;;11.27;4.60;;;3.50;99.90;;;;;;5094220;28;20209;-77
2022/01/05 08:21:05;;;;;;;11.13;5.13;;;3.60;99.90;;;;;;5093061;28;20651;-77
2022/01/05 08:23:35;;;;;;;10.00;4.63;;;3.60;99.90;;;;;;5093493;28;20244;-77
2022/01/05 08:26:02;;;;;;;12.93;5.47;;;3.70;99.90;;;;;;5094201;28;20201;-78
2022/01/05 08:28:28;;;;;;;14.77;6.00;;;3.60;99.90;;;;;;5093949;28;20210;-77
2022/01/05 08:30:55;;;;;;;16.97;7.00;;;3.70;99.90;;;;;;5093848;28;20595;-77
2022/01/05 08:33:22;;;;;;;13.20;6.30;;;3.70;99.90;;;;;;5093550;28;20205;-77
2022/01/05 08:35:49;;;;;;;13.27;6.20;;;3.70;99.90;;;;;;5093879;28;20228;-77
2022/01/05 08:38:17;;;;;;;13.93;6.10;;;3.70;99.90;;;;;;5093321;28;20205;-77
2022/01/05 08:40:45;;;;;;;17.00;6.90;;;3.80;99.90;;;;;;5094187;28;20639;-77
2022/01/05 08:43:14;;;;;;;17.13;7.47;;;3.90;99.90;;;;;;5093236;28;20212;-76
2022/01/05 08:45:43;;;;;;;17.93;6.87;;;4.30;99.90;;;;;;5092826;28;20213;-77
2022/01/05 08:48:11;;;;;;;10.77;6.70;;;4.60;99.90;;;;;;5093004;28;20228;-77
2022/01/05 08:50:38;;;;;;;13.10;6.67;;;4.20;99.90;;;;;;5093723;28;20558;-77
2022/01/05 08:53:06;;;;;;;12.23;6.87;;;4.20;99.90;;;;;;5093167;28;20206;-77
2022/01/05 08:55:36;;;;;;;15.27;8.47;;;4.30;99.90;;;;;;5093571;28;20655;-77
2022/01/05 08:58:06;;;;;;;14.70;6.23;;;4.30;99.90;;;;;;5092890;28;20211;-77
2022/01/05 09:00:33;;;;;;;15.00;6.63;;;4.30;99.90;;;;;;5092554;28;20246;-78
2022/01/05 09:03:00;;;;;;;15.33;6.50;;;4.50;99.90;;;;;;5092716;28;20259;-77
2022/01/05 09:05:27;;;;;;;11.57;6.27;;;4.60;99.90;;;;;;5092678;28;20263;-77
2022/01/05 09:07:54;;;;;;;15.37;6.77;;;4.60;99.90;;;;;;5093359;28;20211;-77
2022/01/05 09:10:21;;;;;;;17.40;10.43;;;4.80;99.90;;;;;;5097753;28;20686;-76
2022/01/05 09:12:48;;;;;;;13.00;5.93;;;4.80;99.90;;;;;;5092396;28;20208;-77
2022/01/05 09:15:16;;;;;;;12.47;5.97;;;4.60;99.90;;;;;;5093049;28;20201;-77
2022/01/05 09:17:43;;;;;;;14.63;6.73;;;4.60;99.90;;;;;;5091667;28;20212;-77
2022/01/05 09:20:11;;;;;;;16.23;6.53;;;4.70;99.90;;;;;;5093044;28;20204;-78
2022/01/05 09:22:39;;;;;;;14.57;5.90;;;4.70;99.90;;;;;;5092578;28;20564;-77
2022/01/05 09:25:07;;;;;;;11.67;6.13;;;4.70;99.90;;;;;;5092235;28;20562;-78
2022/01/05 09:27:34;;;;;;;14.30;5.77;;;5.00;99.90;;;;;;5092735;28;20273;-77
2022/01/05 09:30:01;;;;;;;20.13;6.10;;;4.60;99.90;;;;;;5092914;28;20217;-77
2022/01/05 09:32:30;;;;;;;15.47;6.77;;;4.60;99.90;;;;;;5091777;28;20229;-77
2022/01/05 09:34:57;;;;;;;10.93;6.30;;;4.50;99.90;;;;;;5092948;28;20197;-77
2022/01/05 09:37:27;;;;;;;15.27;7.03;;;4.50;99.90;;;;;;5092278;28;20926;-77
2022/01/05 09:42:40;;;;;;;14.53;6.53;;;4.80;99.90;;;;;;5092769;28;20203;-77
2022/01/05 09:45:19;;;;;;;12.97;6.53;;;4.80;99.90;;;;;;5092469;28;20574;-77
2022/01/05 09:48:13;;;;;;;11.87;5.50;;;4.60;99.90;;;;;;5092014;28;20206;-77
2022/01/05 09:50:46;;;;;;;10.67;5.73;;;4.50;99.90;;;;;;5088628;28;20229;-77
2022/01/05 09:53:15;;;;;;;13.97;6.20;;;4.50;99.90;;;;;;5091665;28;20563;-76
2022/01/05 09:55:42;;;;;;;19.57;6.60;;;4.50;99.90;;;;;;5092811;28;20194;-77
2022/01/05 09:58:09;;;;;;;14.87;5.87;;;4.50;99.90;;;;;;5091981;28;20644;-77
2022/01/05 10:00:36;;;;;;;14.47;6.33;;;4.50;99.90;;;;;;5092569;28;20197;-77
2022/01/05 10:03:07;;;;;;;8.93;5.73;;;4.60;99.90;;;;;;5091485;28;20660;-77
2022/01/05 10:05:34;;;;;;;16.10;6.40;;;4.50;99.90;;;;;;5091815;28;20236;-69
2022/01/05 10:08:01;;;;;;;12.83;6.23;;;4.60;99.90;;;;;;5091870;28;20206;-69
2022/01/05 10:10:28;;;;;;;16.30;6.27;;;4.50;99.90;;;;;;5090260;28;20683;-70
2022/01/05 10:12:55;;;;;;;11.00;6.03;;;4.60;99.90;;;;;;5091212;28;20202;-69
2022/01/05 10:15:23;;;;;;;13.77;5.93;;;4.60;99.90;;;;;;5091351;28;20251;-69
2022/01/05 10:17:50;;;;;;;11.67;6.00;;;4.80;99.90;;;;;;5090684;28;20205;-76
2022/01/05 10:20:22;;;;;;;11.60;5.70;;;5.00;99.90;;;;;;5092693;28;20197;-76
2022/01/05 10:22:49;;;;;;;12.47;5.83;;;4.90;99.90;;;;;;5094141;28;20255;-76
2022/01/05 10:25:18;;;;;;;8.73;5.27;;;4.90;99.90;;;;;;5095567;28;20293;-76
2022/01/05 10:27:56;;;;;;;9.90;5.43;;;4.90;99.90;;;;;;5094314;28;20205;-76
2022/01/05 10:30:33;;;;;;;13.37;5.40;;;4.80;99.90;;;;;;5095471;28;20228;-75
2022/01/05 10:33:00;;;;;;;9.67;5.00;;;4.70;99.90;;;;;;5093701;28;20202;-75
2022/01/05 10:35:29;;;;;;;7.40;4.50;;;4.70;99.90;;;;;;5095243;28;20198;-76
2022/01/05 10:38:01;;;;;;;8.83;4.93;;;4.60;99.90;;;;;;5094206;28;20251;-76
2022/01/05 10:40:28;;;;;;;9.30;4.93;;;4.40;99.90;;;;;;5095354;28;20197;-76
2022/01/05 10:42:57;;;;;;;9.70;4.60;;;4.10;99.90;;;;;;5094552;28;20201;-76
2022/01/05 10:45:38;;;;;;;12.27;6.37;;;3.80;99.90;;;;;;5094813;28;20243;-76
2022/01/05 10:48:07;;;;;;;10.33;6.90;;;3.60;99.90;;;;;;5094901;28;20213;-76
2022/01/05 10:50:36;;;;;;;10.73;6.53;;;3.40;99.90;;;;;;5094909;28;20232;-76
2022/01/05 10:53:05;;;;;;;9.67;6.03;;;3.30;99.90;;;;;;5094593;28;20202;-76
2022/01/05 10:55:38;;;;;;;9.23;4.67;;;3.30;99.90;;;;;;5094735;28;20223;-76
2022/01/05 10:58:07;;;;;;;8.07;6.00;;;3.40;99.90;;;;;;5094021;28;20240;-76
2022/01/05 11:00:38;;;;;;;9.67;5.53;;;3.50;99.90;;;;;;5094888;28;20274;-76
2022/01/05 11:03:21;;;;;;;6.57;4.47;;;3.50;99.90;;;;;;5094690;28;20213;-76
2022/01/05 11:06:06;;;;;;;7.23;5.00;;;3.60;99.90;;;;;;5094664;28;20247;-76
2022/01/05 11:08:34;;;;;;;8.43;5.67;;;3.60;99.90;;;;;;5093883;28;20267;-76
2022/01/05 11:11:02;;;;;;;9.33;6.00;;;3.60;99.90;;;;;;5093751;28;20217;-75
2022/01/05 11:13:29;;;;;;;8.50;6.30;;;3.70;99.90;;;;;;5094637;28;20219;-77
2022/01/05 11:15:59;;;;;;;9.40;5.63;;;3.60;99.90;;;;;;5093439;28;20243;-76
2022/01/05 11:18:30;;;;;;;8.67;6.17;;;3.70;99.90;;;;;;5094439;28;20197;-76
2022/01/05 11:21:01;;;;;;;7.60;5.40;;;3.80;99.90;;;;;;5093146;28;20209;-76
2022/01/05 11:23:31;;;;;;;6.07;4.07;;;3.80;99.90;;;;;;5094249;28;20244;-76
2022/01/05 11:26:01;;;;;;;6.60;4.87;;;3.70;99.90;;;;;;5093274;28;20200;-76
2022/01/05 11:28:29;;;;;;;5.27;3.93;;;3.70;99.90;;;;;;5094562;28;20201;-75
2022/01/05 11:30:58;;;;;;;7.57;4.87;;;3.60;99.90;;;;;;5092567;28;20715;-76
2022/01/05 11:33:26;;;;;;;6.03;4.37;;;3.60;99.90;;;;;;5093301;28;20205;-75
2022/01/05 11:35:53;;;;;;;6.43;4.60;;;3.60;99.90;;;;;;5094158;28;20671;-75
2022/01/05 11:38:20;;;;;;;7.37;4.03;;;3.60;99.90;;;;;;5092789;28;20209;-76
2022/01/05 11:40:52;;;;;;;8.33;4.83;;;3.60;99.90;;;;;;5093918;28;20610;-75
2022/01/05 11:43:25;;;;;;;7.93;4.10;;;3.40;99.90;;;;;;5093738;28;20297;-76
2022/01/05 11:45:53;;;;;;;5.90;4.10;;;3.30;99.90;;;;;;5092194;28;20213;-75
2022/01/05 11:48:26;;;;;;;4.13;3.53;;;3.30;99.90;;;;;;5092608;28;20284;-75
2022/01/05 11:50:56;;;;;;;4.17;3.43;;;3.20;99.90;;;;;;5093871;28;20278;-76
2022/01/05 11:53:40;;;;;;;5.33;4.20;;;3.30;99.90;;;;;;5092505;28;20609;-69
2022/01/05 11:56:17;;;;;;;5.57;4.07;;;3.40;99.90;;;;;;5094186;28;20210;-76
2022/01/05 11:59:03;;;;;;;3.67;3.23;;;3.40;99.90;;;;;;5092855;28;20219;-77
2022/01/05 12:01:33;;;;;;;6.47;3.37;;;3.60;99.90;;;;;;5094025;28;20293;-76
2022/01/05 12:04:13;;;;;;;5.70;3.80;;;3.60;99.90;;;;;;5093273;28;20206;-77
2022/01/05 12:07:03;;;;;;;6.80;4.53;;;3.60;99.90;;;;;;5092286;28;20292;-77
2022/01/05 12:09:33;;;;;;;6.70;4.60;;;3.60;99.90;;;;;;5092156;28;20202;-77
2022/01/05 12:12:24;;;;;;;6.90;4.40;;;3.60;99.90;;;;;;5093578;28;20206;-76
2022/01/05 12:14:51;;;;;;;5.33;4.10;;;3.60;99.90;;;;;;5091448;28;20206;-77
2022/01/05 12:17:20;;;;;;;6.50;4.30;;;3.60;99.90;;;;;;5091848;28;20251;-77
2022/01/05 12:20:20;;;;;;;7.17;5.10;;;3.70;99.90;;;;;;5093240;28;20205;-77
2022/01/05 12:22:47;;;;;;;7.73;4.80;;;4.00;99.90;;;;;;5070770;28;20234;-69
2022/01/05 12:25:17;;;;;;;6.40;4.90;;;4.00;99.90;;;;;;5072928;28;20245;-69
2022/01/05 12:28:06;;;;;;;9.43;5.30;;;4.00;99.90;;;;;;5075815;28;20303;-69
2022/01/05 12:30:51;;;;;;;7.93;5.40;;;3.90;99.90;;;;;;5091074;28;20592;-69
2022/01/05 12:33:19;;;;;;;7.87;5.73;;;4.20;99.90;;;;;;5091903;28;20197;-69
2022/01/05 12:35:52;;;;;;;8.30;6.00;;;4.50;99.90;;;;;;5092658;28;20243;-69
2022/01/05 12:38:37;;;;;;;8.43;5.40;;;4.70;99.90;;;;;;5091818;28;20536;-69
2022/01/05 12:41:24;;;;;;;12.97;6.43;;;4.90;99.90;;;;;;5092810;28;20712;-69
2022/01/05 12:43:53;;;;;;;8.00;5.77;;;4.90;99.90;;;;;;5087957;28;20358;-69
2022/01/05 12:46:41;;;;;;;8.40;4.93;;;4.90;99.90;;;;;;5092435;28;20204;-69
2022/01/05 12:49:16;;;;;;;6.03;4.57;;;4.60;99.90;;;;;;5092815;28;20245;-69
2022/01/05 12:51:50;;;;;;;7.17;5.17;;;4.40;99.90;;;;;;5091469;28;20224;-69
2022/01/05 12:54:19;;;;;;;6.10;4.83;;;4.20;99.90;;;;;;5092477;28;20251;-69
2022/01/05 12:56:51;;;;;;;8.00;5.10;;;4.00;99.90;;;;;;5091254;28;20204;-69
2022/01/05 12:59:22;;;;;;;7.47;5.37;;;3.90;99.90;;;;;;5092835;28;20202;-69
2022/01/05 13:01:52;;;;;;;8.00;5.33;;;4.00;99.90;;;;;;5090785;28;20566;-69
2022/01/05 13:04:23;;;;;;;9.80;6.13;;;4.10;99.90;;;;;;5090822;28;20224;-69